sensor_id;sensor_type;location;lat;lon;timestamp;P1;durP1;ratioP1;P2;durP2;ratioP2
8737;SDS011;4405;49.272;8.590;2023-10-31T00:01:58;1.40;;;1.30;;
8737;SDS011;4405;49.272;8.590;2023-10-31T00:04:26;1.20;;;1.20;;
8737;SDS011;4405;49.272;8.590;2023-10-31T00:06:52;1.40;;;1.10;;
8737;SDS011;4405;49.272;8.590;2023-10-31T00:09:18;3.53;;;1.10;;
8737;SDS011;4405;49.272;8.590;2023-10-31T00:11:45;1.13;;;1.13;;
8737;SDS011;4405;49.272;8.590;2023-10-31T00:14:11;0.87;;;0.87;;
8737;SDS011;4405;49.272;8.590;2023-10-31T00:16:37;1.17;;;1.10;;
8737;SDS011;4405;49.272;8.590;2023-10-31T00:19:04;0.90;;;0.90;;
8737;SDS011;4405;49.272;8.590;2023-10-31T00:21:31;1.00;;;1.00;;
8737;SDS011;4405;49.272;8.590;2023-10-31T00:23:58;2.10;;;1.00;;
8737;SDS011;4405;49.272;8.590;2023-10-31T00:26:24;1.40;;;0.93;;
8737;SDS011;4405;49.272;8.590;2023-10-31T00:28:50;1.60;;;0.83;;
8737;SDS011;4405;49.272;8.590;2023-10-31T00:31:17;3.03;;;0.90;;
8737;SDS011;4405;49.272;8.590;2023-10-31T00:33:43;0.63;;;0.63;;
8737;SDS011;4405;49.272;8.590;2023-10-31T00:36:09;0.60;;;0.60;;
8737;SDS011;4405;49.272;8.590;2023-10-31T00:38:37;1.33;;;0.70;;
8737;SDS011;4405;49.272;8.590;2023-10-31T00:41:04;0.60;;;0.60;;
8737;SDS011;4405;49.272;8.590;2023-10-31T00:43:30;1.10;;;0.70;;
8737;SDS011;4405;49.272;8.590;2023-10-31T00:45:56;0.77;;;0.60;;
8737;SDS011;4405;49.272;8.590;2023-10-31T00:48:23;0.50;;;0.50;;
8737;SDS011;4405;49.272;8.590;2023-10-31T00:50:49;0.60;;;0.60;;
8737;SDS011;4405;49.272;8.590;2023-10-31T00:53:15;2.87;;;0.70;;
8737;SDS011;4405;49.272;8.590;2023-10-31T00:55:43;4.63;;;0.70;;
8737;SDS011;4405;49.272;8.590;2023-10-31T00:58:10;0.90;;;0.90;;
8737;SDS011;4405;49.272;8.590;2023-10-31T01:00:36;1.10;;;1.00;;
8737;SDS011;4405;49.272;8.590;2023-10-31T01:03:03;3.20;;;1.30;;
8737;SDS011;4405;49.272;8.590;2023-10-31T01:05:29;1.40;;;1.40;;
8737;SDS011;4405;49.272;8.590;2023-10-31T01:07:55;4.80;;;1.60;;
8737;SDS011;4405;49.272;8.590;2023-10-31T01:10:22;2.17;;;1.70;;
8737;SDS011;4405;49.272;8.590;2023-10-31T01:12:49;2.20;;;1.60;;
8737;SDS011;4405;49.272;8.590;2023-10-31T01:15:16;1.30;;;1.30;;
8737;SDS011;4405;49.272;8.590;2023-10-31T01:17:42;1.10;;;1.10;;
8737;SDS011;4405;49.272;8.590;2023-10-31T01:20:09;1.20;;;1.20;;
8737;SDS011;4405;49.272;8.590;2023-10-31T01:22:36;0.90;;;0.90;;
8737;SDS011;4405;49.272;8.590;2023-10-31T01:25:03;0.90;;;0.90;;
8737;SDS011;4405;49.272;8.590;2023-10-31T01:27:29;1.20;;;1.00;;
8737;SDS011;4405;49.272;8.590;2023-10-31T01:29:57;1.10;;;1.00;;
8737;SDS011;4405;49.272;8.590;2023-10-31T01:32:23;1.10;;;1.00;;
8737;SDS011;4405;49.272;8.590;2023-10-31T01:34:50;1.53;;;1.13;;
8737;SDS011;4405;49.272;8.590;2023-10-31T01:37:16;0.90;;;0.90;;
8737;SDS011;4405;49.272;8.590;2023-10-31T01:39:44;4.33;;;0.90;;
8737;SDS011;4405;49.272;8.590;2023-10-31T01:42:13;1.23;;;1.10;;
8737;SDS011;4405;49.272;8.590;2023-10-31T01:44:39;1.00;;;1.00;;
8737;SDS011;4405;49.272;8.590;2023-10-31T01:47:07;0.90;;;0.90;;
8737;SDS011;4405;49.272;8.590;2023-10-31T01:49:33;1.37;;;1.00;;
8737;SDS011;4405;49.272;8.590;2023-10-31T01:52:00;0.80;;;0.80;;
8737;SDS011;4405;49.272;8.590;2023-10-31T01:54:27;0.87;;;0.80;;
8737;SDS011;4405;49.272;8.590;2023-10-31T01:56:53;0.77;;;0.77;;
8737;SDS011;4405;49.272;8.590;2023-10-31T01:59:22;3.07;;;0.90;;
8737;SDS011;4405;49.272;8.590;2023-10-31T02:01:49;0.70;;;0.70;;
8737;SDS011;4405;49.272;8.590;2023-10-31T02:04:17;2.33;;;0.80;;
8737;SDS011;4405;49.272;8.590;2023-10-31T02:06:43;2.37;;;0.77;;
8737;SDS011;4405;49.272;8.590;2023-10-31T02:09:09;2.53;;;0.80;;
8737;SDS011;4405;49.272;8.590;2023-10-31T02:11:36;1.70;;;0.83;;
8737;SDS011;4405;49.272;8.590;2023-10-31T02:14:03;0.80;;;0.80;;
8737;SDS011;4405;49.272;8.590;2023-10-31T02:16:29;1.50;;;0.73;;
8737;SDS011;4405;49.272;8.590;2023-10-31T02:18:55;0.87;;;0.70;;
8737;SDS011;4405;49.272;8.590;2023-10-31T02:21:23;1.47;;;0.80;;
8737;SDS011;4405;49.272;8.590;2023-10-31T02:23:59;0.90;;;0.90;;
8737;SDS011;4405;49.272;8.590;2023-10-31T02:26:28;0.80;;;0.70;;
8737;SDS011;4405;49.272;8.590;2023-10-31T02:28:54;0.63;;;0.63;;
8737;SDS011;4405;49.272;8.590;2023-10-31T02:31:21;5.80;;;0.90;;
8737;SDS011;4405;49.272;8.590;2023-10-31T02:33:47;3.30;;;0.80;;
8737;SDS011;4405;49.272;8.590;2023-10-31T02:36:13;1.60;;;0.80;;
8737;SDS011;4405;49.272;8.590;2023-10-31T02:38:39;2.10;;;0.80;;
8737;SDS011;4405;49.272;8.590;2023-10-31T02:41:07;0.80;;;0.70;;
8737;SDS011;4405;49.272;8.590;2023-10-31T02:43:34;0.93;;;0.70;;
8737;SDS011;4405;49.272;8.590;2023-10-31T02:46:00;0.73;;;0.70;;
8737;SDS011;4405;49.272;8.590;2023-10-31T02:48:26;2.20;;;0.80;;
8737;SDS011;4405;49.272;8.590;2023-10-31T02:50:54;1.10;;;0.70;;
8737;SDS011;4405;49.272;8.590;2023-10-31T02:53:20;0.70;;;0.70;;
8737;SDS011;4405;49.272;8.590;2023-10-31T02:55:46;0.60;;;0.60;;
8737;SDS011;4405;49.272;8.590;2023-10-31T02:58:14;0.87;;;0.70;;
8737;SDS011;4405;49.272;8.590;2023-10-31T03:00:42;2.97;;;0.67;;
8737;SDS011;4405;49.272;8.590;2023-10-31T03:03:08;1.73;;;0.83;;
8737;SDS011;4405;49.272;8.590;2023-10-31T03:05:35;0.70;;;0.70;;
8737;SDS011;4405;49.272;8.590;2023-10-31T03:08:01;1.20;;;0.60;;
8737;SDS011;4405;49.272;8.590;2023-10-31T03:10:27;0.83;;;0.70;;
8737;SDS011;4405;49.272;8.590;2023-10-31T03:12:54;2.13;;;0.73;;
8737;SDS011;4405;49.272;8.590;2023-10-31T03:15:21;1.20;;;0.67;;
8737;SDS011;4405;49.272;8.590;2023-10-31T03:17:48;0.73;;;0.67;;
8737;SDS011;4405;49.272;8.590;2023-10-31T03:20:14;0.73;;;0.60;;
8737;SDS011;4405;49.272;8.590;2023-10-31T03:22:40;3.17;;;0.60;;
8737;SDS011;4405;49.272;8.590;2023-10-31T03:25:07;0.80;;;0.80;;
8737;SDS011;4405;49.272;8.590;2023-10-31T03:27:34;1.97;;;0.90;;
8737;SDS011;4405;49.272;8.590;2023-10-31T03:30:00;0.70;;;0.70;;
8737;SDS011;4405;49.272;8.590;2023-10-31T03:32:28;0.73;;;0.70;;
8737;SDS011;4405;49.272;8.590;2023-10-31T03:34:54;0.70;;;0.70;;
8737;SDS011;4405;49.272;8.590;2023-10-31T03:37:21;0.83;;;0.67;;
8737;SDS011;4405;49.272;8.590;2023-10-31T03:39:47;0.70;;;0.70;;
8737;SDS011;4405;49.272;8.590;2023-10-31T03:42:13;0.77;;;0.77;;
8737;SDS011;4405;49.272;8.590;2023-10-31T03:44:39;2.50;;;0.80;;
8737;SDS011;4405;49.272;8.590;2023-10-31T03:47:06;1.03;;;0.53;;
8737;SDS011;4405;49.272;8.590;2023-10-31T03:49:33;2.83;;;0.90;;
8737;SDS011;4405;49.272;8.590;2023-10-31T03:52:03;2.17;;;0.77;;
8737;SDS011;4405;49.272;8.590;2023-10-31T03:54:29;6.97;;;1.00;;
8737;SDS011;4405;49.272;8.590;2023-10-31T03:56:56;0.93;;;0.70;;
8737;SDS011;4405;49.272;8.590;2023-10-31T03:59:22;0.70;;;0.70;;
8737;SDS011;4405;49.272;8.590;2023-10-31T04:01:48;2.83;;;0.80;;
8737;SDS011;4405;49.272;8.590;2023-10-31T04:04:15;0.70;;;0.60;;
8737;SDS011;4405;49.272;8.590;2023-10-31T04:06:42;2.10;;;0.77;;
8737;SDS011;4405;49.272;8.590;2023-10-31T04:09:09;0.70;;;0.70;;
8737;SDS011;4405;49.272;8.590;2023-10-31T04:11:35;0.63;;;0.63;;
8737;SDS011;4405;49.272;8.590;2023-10-31T04:14:03;0.83;;;0.63;;
8737;SDS011;4405;49.272;8.590;2023-10-31T04:16:30;0.70;;;0.70;;
8737;SDS011;4405;49.272;8.590;2023-10-31T04:18:57;1.47;;;0.70;;
8737;SDS011;4405;49.272;8.590;2023-10-31T04:21:23;1.50;;;0.70;;
8737;SDS011;4405;49.272;8.590;2023-10-31T04:23:51;1.13;;;1.00;;
8737;SDS011;4405;49.272;8.590;2023-10-31T04:26:17;1.77;;;0.93;;
8737;SDS011;4405;49.272;8.590;2023-10-31T04:28:43;2.33;;;0.67;;
8737;SDS011;4405;49.272;8.590;2023-10-31T04:31:10;2.00;;;0.80;;
8737;SDS011;4405;49.272;8.590;2023-10-31T04:33:36;1.33;;;0.90;;
8737;SDS011;4405;49.272;8.590;2023-10-31T04:36:02;2.87;;;0.90;;
8737;SDS011;4405;49.272;8.590;2023-10-31T04:38:29;1.47;;;0.70;;
8737;SDS011;4405;49.272;8.590;2023-10-31T04:40:57;1.27;;;1.27;;
8737;SDS011;4405;49.272;8.590;2023-10-31T04:43:23;0.67;;;0.67;;
8737;SDS011;4405;49.272;8.590;2023-10-31T04:45:50;3.37;;;0.70;;
8737;SDS011;4405;49.272;8.590;2023-10-31T04:48:17;2.20;;;0.90;;
8737;SDS011;4405;49.272;8.590;2023-10-31T04:50:44;0.70;;;0.70;;
8737;SDS011;4405;49.272;8.590;2023-10-31T04:53:10;3.20;;;1.00;;
8737;SDS011;4405;49.272;8.590;2023-10-31T04:55:36;0.80;;;0.80;;
8737;SDS011;4405;49.272;8.590;2023-10-31T04:58:04;0.93;;;0.93;;
8737;SDS011;4405;49.272;8.590;2023-10-31T05:00:30;1.10;;;0.80;;
8737;SDS011;4405;49.272;8.590;2023-10-31T05:02:57;0.90;;;0.90;;
8737;SDS011;4405;49.272;8.590;2023-10-31T05:05:25;2.50;;;0.90;;
8737;SDS011;4405;49.272;8.590;2023-10-31T05:07:51;0.83;;;0.60;;
8737;SDS011;4405;49.272;8.590;2023-10-31T05:10:17;2.27;;;0.90;;
8737;SDS011;4405;49.272;8.590;2023-10-31T05:12:43;0.70;;;0.70;;
8737;SDS011;4405;49.272;8.590;2023-10-31T05:15:11;1.50;;;0.70;;
8737;SDS011;4405;49.272;8.590;2023-10-31T05:17:38;0.83;;;0.57;;
8737;SDS011;4405;49.272;8.590;2023-10-31T05:20:04;0.80;;;0.80;;
8737;SDS011;4405;49.272;8.590;2023-10-31T05:22:30;0.80;;;0.60;;
8737;SDS011;4405;49.272;8.590;2023-10-31T05:24:57;0.90;;;0.77;;
8737;SDS011;4405;49.272;8.590;2023-10-31T05:27:23;1.20;;;0.80;;
8737;SDS011;4405;49.272;8.590;2023-10-31T05:29:49;1.67;;;0.77;;
8737;SDS011;4405;49.272;8.590;2023-10-31T05:32:17;1.07;;;0.70;;
8737;SDS011;4405;49.272;8.590;2023-10-31T05:34:44;1.00;;;0.70;;
8737;SDS011;4405;49.272;8.590;2023-10-31T05:37:10;2.40;;;0.80;;
8737;SDS011;4405;49.272;8.590;2023-10-31T05:39:36;1.20;;;1.00;;
8737;SDS011;4405;49.272;8.590;2023-10-31T05:42:03;0.77;;;0.77;;
8737;SDS011;4405;49.272;8.590;2023-10-31T05:44:29;1.10;;;0.77;;
8737;SDS011;4405;49.272;8.590;2023-10-31T05:46:55;1.73;;;0.80;;
8737;SDS011;4405;49.272;8.590;2023-10-31T05:49:23;3.83;;;0.63;;
8737;SDS011;4405;49.272;8.590;2023-10-31T05:51:50;0.60;;;0.60;;
8737;SDS011;4405;49.272;8.590;2023-10-31T05:54:16;4.20;;;0.90;;
8737;SDS011;4405;49.272;8.590;2023-10-31T05:56:42;1.50;;;0.70;;
8737;SDS011;4405;49.272;8.590;2023-10-31T05:59:09;1.07;;;1.00;;
8737;SDS011;4405;49.272;8.590;2023-10-31T06:01:36;2.10;;;0.87;;
8737;SDS011;4405;49.272;8.590;2023-10-31T06:04:02;1.03;;;0.70;;
8737;SDS011;4405;49.272;8.590;2023-10-31T06:06:31;0.70;;;0.70;;
8737;SDS011;4405;49.272;8.590;2023-10-31T06:08:58;0.77;;;0.77;;
8737;SDS011;4405;49.272;8.590;2023-10-31T06:11:24;0.70;;;0.70;;
8737;SDS011;4405;49.272;8.590;2023-10-31T06:13:50;0.90;;;0.90;;
8737;SDS011;4405;49.272;8.590;2023-10-31T06:16:16;1.60;;;0.80;;
8737;SDS011;4405;49.272;8.590;2023-10-31T06:18:42;2.70;;;0.70;;
8737;SDS011;4405;49.272;8.590;2023-10-31T06:21:09;3.30;;;0.87;;
8737;SDS011;4405;49.272;8.590;2023-10-31T06:23:37;2.20;;;0.87;;
8737;SDS011;4405;49.272;8.590;2023-10-31T06:26:03;7.83;;;0.97;;
8737;SDS011;4405;49.272;8.590;2023-10-31T06:28:30;1.97;;;1.07;;
8737;SDS011;4405;49.272;8.590;2023-10-31T06:30:59;0.80;;;0.80;;
8737;SDS011;4405;49.272;8.590;2023-10-31T06:33:25;1.30;;;0.70;;
8737;SDS011;4405;49.272;8.590;2023-10-31T06:35:52;1.93;;;1.10;;
8737;SDS011;4405;49.272;8.590;2023-10-31T06:38:18;1.57;;;0.80;;
8737;SDS011;4405;49.272;8.590;2023-10-31T06:40:46;1.53;;;1.07;;
8737;SDS011;4405;49.272;8.590;2023-10-31T06:43:13;3.40;;;0.87;;
8737;SDS011;4405;49.272;8.590;2023-10-31T06:45:39;0.93;;;0.83;;
8737;SDS011;4405;49.272;8.590;2023-10-31T06:48:05;2.40;;;0.80;;
8737;SDS011;4405;49.272;8.590;2023-10-31T06:50:34;1.70;;;1.10;;
8737;SDS011;4405;49.272;8.590;2023-10-31T06:53:00;0.90;;;0.90;;
8737;SDS011;4405;49.272;8.590;2023-10-31T06:55:26;3.13;;;1.27;;
8737;SDS011;4405;49.272;8.590;2023-10-31T06:57:54;1.67;;;1.20;;
8737;SDS011;4405;49.272;8.590;2023-10-31T07:00:20;5.23;;;1.63;;
8737;SDS011;4405;49.272;8.590;2023-10-31T07:02:47;1.10;;;1.10;;
8737;SDS011;4405;49.272;8.590;2023-10-31T07:05:13;1.57;;;1.00;;
8737;SDS011;4405;49.272;8.590;2023-10-31T07:07:40;1.67;;;1.20;;
8737;SDS011;4405;49.272;8.590;2023-10-31T07:10:07;1.50;;;1.00;;
8737;SDS011;4405;49.272;8.590;2023-10-31T07:12:33;3.57;;;1.10;;
8737;SDS011;4405;49.272;8.590;2023-10-31T07:15:01;3.40;;;1.30;;
8737;SDS011;4405;49.272;8.590;2023-10-31T07:17:27;1.20;;;1.10;;
8737;SDS011;4405;49.272;8.590;2023-10-31T07:19:54;1.93;;;1.27;;
8737;SDS011;4405;49.272;8.590;2023-10-31T07:22:20;4.47;;;1.30;;
8737;SDS011;4405;49.272;8.590;2023-10-31T07:24:49;4.20;;;1.20;;
8737;SDS011;4405;49.272;8.590;2023-10-31T07:27:15;1.70;;;1.20;;
8737;SDS011;4405;49.272;8.590;2023-10-31T07:29:42;1.90;;;1.20;;
8737;SDS011;4405;49.272;8.590;2023-10-31T07:32:09;3.87;;;1.20;;
8737;SDS011;4405;49.272;8.590;2023-10-31T07:34:36;1.50;;;1.03;;
8737;SDS011;4405;49.272;8.590;2023-10-31T07:37:02;2.23;;;1.10;;
8737;SDS011;4405;49.272;8.590;2023-10-31T07:39:29;2.23;;;1.23;;
8737;SDS011;4405;49.272;8.590;2023-10-31T07:41:55;1.67;;;1.10;;
8737;SDS011;4405;49.272;8.590;2023-10-31T07:44:21;2.30;;;1.23;;
8737;SDS011;4405;49.272;8.590;2023-10-31T07:46:47;2.10;;;1.00;;
8737;SDS011;4405;49.272;8.590;2023-10-31T07:49:15;1.23;;;1.13;;
8737;SDS011;4405;49.272;8.590;2023-10-31T07:51:41;4.40;;;1.20;;
8737;SDS011;4405;49.272;8.590;2023-10-31T07:54:08;2.57;;;1.20;;
8737;SDS011;4405;49.272;8.590;2023-10-31T07:56:34;3.93;;;1.20;;
8737;SDS011;4405;49.272;8.590;2023-10-31T07:59:01;1.30;;;1.20;;
8737;SDS011;4405;49.272;8.590;2023-10-31T08:01:27;3.30;;;1.40;;
8737;SDS011;4405;49.272;8.590;2023-10-31T08:03:54;4.57;;;1.30;;
8737;SDS011;4405;49.272;8.590;2023-10-31T08:06:22;4.53;;;1.30;;
8737;SDS011;4405;49.272;8.590;2023-10-31T08:08:48;2.10;;;1.23;;
8737;SDS011;4405;49.272;8.590;2023-10-31T08:11:14;2.23;;;1.37;;
8737;SDS011;4405;49.272;8.590;2023-10-31T08:13:41;1.20;;;1.10;;
8737;SDS011;4405;49.272;8.590;2023-10-31T08:16:07;2.70;;;1.10;;
8737;SDS011;4405;49.272;8.590;2023-10-31T08:18:34;4.73;;;1.30;;
8737;SDS011;4405;49.272;8.590;2023-10-31T08:21:00;4.47;;;1.20;;
8737;SDS011;4405;49.272;8.590;2023-10-31T08:23:28;3.63;;;1.47;;
8737;SDS011;4405;49.272;8.590;2023-10-31T08:25:54;2.43;;;1.00;;
8737;SDS011;4405;49.272;8.590;2023-10-31T08:28:21;2.23;;;1.20;;
8737;SDS011;4405;49.272;8.590;2023-10-31T08:30:47;3.07;;;1.10;;
8737;SDS011;4405;49.272;8.590;2023-10-31T08:33:14;4.00;;;1.20;;
8737;SDS011;4405;49.272;8.590;2023-10-31T08:35:40;2.63;;;1.30;;
8737;SDS011;4405;49.272;8.590;2023-10-31T08:38:07;1.37;;;1.10;;
8737;SDS011;4405;49.272;8.590;2023-10-31T08:40:35;4.10;;;1.10;;
8737;SDS011;4405;49.272;8.590;2023-10-31T08:43:01;6.47;;;1.40;;
8737;SDS011;4405;49.272;8.590;2023-10-31T08:45:29;2.00;;;1.20;;
8737;SDS011;4405;49.272;8.590;2023-10-31T08:47:55;4.70;;;1.23;;
8737;SDS011;4405;49.272;8.590;2023-10-31T08:50:22;3.57;;;1.10;;
8737;SDS011;4405;49.272;8.590;2023-10-31T08:52:48;1.97;;;1.20;;
8737;SDS011;4405;49.272;8.590;2023-10-31T08:55:14;3.90;;;1.30;;
8737;SDS011;4405;49.272;8.590;2023-10-31T08:57:42;2.50;;;1.20;;
8737;SDS011;4405;49.272;8.590;2023-10-31T09:00:08;3.43;;;1.50;;
8737;SDS011;4405;49.272;8.590;2023-10-31T09:02:35;2.07;;;1.20;;
8737;SDS011;4405;49.272;8.590;2023-10-31T09:05:01;3.53;;;1.20;;
8737;SDS011;4405;49.272;8.590;2023-10-31T09:07:28;2.87;;;1.37;;
8737;SDS011;4405;49.272;8.590;2023-10-31T09:09:54;1.93;;;1.33;;
8737;SDS011;4405;49.272;8.590;2023-10-31T09:12:20;2.77;;;1.20;;
8737;SDS011;4405;49.272;8.590;2023-10-31T09:14:48;1.70;;;1.60;;
8737;SDS011;4405;49.272;8.590;2023-10-31T09:17:14;3.07;;;1.40;;
8737;SDS011;4405;49.272;8.590;2023-10-31T09:19:41;3.73;;;1.40;;
8737;SDS011;4405;49.272;8.590;2023-10-31T09:22:07;3.87;;;1.30;;
8737;SDS011;4405;49.272;8.590;2023-10-31T09:24:33;4.13;;;1.50;;
8737;SDS011;4405;49.272;8.590;2023-10-31T09:27:00;4.10;;;1.40;;
8737;SDS011;4405;49.272;8.590;2023-10-31T09:29:26;2.30;;;1.50;;
8737;SDS011;4405;49.272;8.590;2023-10-31T09:31:54;4.97;;;1.50;;
8737;SDS011;4405;49.272;8.590;2023-10-31T09:34:20;3.67;;;1.50;;
8737;SDS011;4405;49.272;8.590;2023-10-31T09:36:46;4.77;;;1.50;;
8737;SDS011;4405;49.272;8.590;2023-10-31T09:39:13;3.37;;;1.40;;
8737;SDS011;4405;49.272;8.590;2023-10-31T09:41:39;3.20;;;1.40;;
8737;SDS011;4405;49.272;8.590;2023-10-31T09:44:06;2.37;;;1.70;;
8737;SDS011;4405;49.272;8.590;2023-10-31T09:46:32;3.97;;;1.57;;
8737;SDS011;4405;49.272;8.590;2023-10-31T09:49:00;4.17;;;1.50;;
8737;SDS011;4405;49.272;8.590;2023-10-31T09:51:27;2.10;;;1.27;;
8737;SDS011;4405;49.272;8.590;2023-10-31T09:53:54;2.77;;;1.43;;
8737;SDS011;4405;49.272;8.590;2023-10-31T09:56:20;2.70;;;1.30;;
8737;SDS011;4405;49.272;8.590;2023-10-31T09:58:47;3.50;;;1.50;;
8737;SDS011;4405;49.272;8.590;2023-10-31T10:01:13;2.73;;;1.40;;
8737;SDS011;4405;49.272;8.590;2023-10-31T10:03:40;3.97;;;1.80;;
8737;SDS011;4405;49.272;8.590;2023-10-31T10:06:08;2.57;;;1.40;;
8737;SDS011;4405;49.272;8.590;2023-10-31T10:08:36;3.27;;;1.83;;
8737;SDS011;4405;49.272;8.590;2023-10-31T10:11:03;3.07;;;1.70;;
8737;SDS011;4405;49.272;8.590;2023-10-31T10:13:30;5.40;;;1.70;;
8737;SDS011;4405;49.272;8.590;2023-10-31T10:15:57;3.13;;;1.67;;
8737;SDS011;4405;49.272;8.590;2023-10-31T10:18:24;3.77;;;1.60;;
8737;SDS011;4405;49.272;8.590;2023-10-31T10:20:53;5.67;;;1.60;;
8737;SDS011;4405;49.272;8.590;2023-10-31T10:23:21;3.83;;;1.47;;
8737;SDS011;4405;49.272;8.590;2023-10-31T10:25:48;4.97;;;1.53;;
8737;SDS011;4405;49.272;8.590;2023-10-31T10:28:15;2.83;;;1.50;;
8737;SDS011;4405;49.272;8.590;2023-10-31T10:30:41;3.33;;;1.70;;
8737;SDS011;4405;49.272;8.590;2023-10-31T10:33:07;2.43;;;1.60;;
8737;SDS011;4405;49.272;8.590;2023-10-31T10:35:34;5.67;;;1.70;;
8737;SDS011;4405;49.272;8.590;2023-10-31T10:38:00;5.03;;;1.80;;
8737;SDS011;4405;49.272;8.590;2023-10-31T10:40:29;2.67;;;1.77;;
8737;SDS011;4405;49.272;8.590;2023-10-31T10:42:56;5.20;;;1.70;;
8737;SDS011;4405;49.272;8.590;2023-10-31T10:45:25;4.20;;;1.40;;
8737;SDS011;4405;49.272;8.590;2023-10-31T10:47:51;3.30;;;1.70;;
8737;SDS011;4405;49.272;8.590;2023-10-31T10:50:19;2.80;;;1.43;;
8737;SDS011;4405;49.272;8.590;2023-10-31T10:52:48;4.43;;;1.63;;
8737;SDS011;4405;49.272;8.590;2023-10-31T10:55:17;3.13;;;1.90;;
8737;SDS011;4405;49.272;8.590;2023-10-31T10:57:51;2.33;;;1.57;;
8737;SDS011;4405;49.272;8.590;2023-10-31T11:00:20;4.33;;;1.53;;
8737;SDS011;4405;49.272;8.590;2023-10-31T11:02:50;3.20;;;1.73;;
8737;SDS011;4405;49.272;8.590;2023-10-31T11:05:17;4.17;;;1.90;;
8737;SDS011;4405;49.272;8.590;2023-10-31T11:07:44;4.80;;;1.80;;
8737;SDS011;4405;49.272;8.590;2023-10-31T11:10:10;5.43;;;1.80;;
8737;SDS011;4405;49.272;8.590;2023-10-31T11:12:37;7.63;;;1.93;;
8737;SDS011;4405;49.272;8.590;2023-10-31T11:15:06;4.13;;;1.73;;
8737;SDS011;4405;49.272;8.590;2023-10-31T11:17:33;2.70;;;1.53;;
8737;SDS011;4405;49.272;8.590;2023-10-31T11:20:00;2.83;;;1.30;;
8737;SDS011;4405;49.272;8.590;2023-10-31T11:22:36;2.73;;;1.07;;
8737;SDS011;4405;49.272;8.590;2023-10-31T11:25:03;2.23;;;1.20;;
8737;SDS011;4405;49.272;8.590;2023-10-31T11:27:30;1.47;;;1.10;;
8737;SDS011;4405;49.272;8.590;2023-10-31T11:29:59;5.97;;;1.40;;
8737;SDS011;4405;49.272;8.590;2023-10-31T11:32:27;2.00;;;1.40;;
8737;SDS011;4405;49.272;8.590;2023-10-31T11:34:53;4.33;;;1.37;;
8737;SDS011;4405;49.272;8.590;2023-10-31T11:37:23;2.60;;;1.23;;
8737;SDS011;4405;49.272;8.590;2023-10-31T11:42:33;3.13;;;1.27;;
8737;SDS011;4405;49.272;8.590;2023-10-31T11:45:00;6.23;;;1.57;;
8737;SDS011;4405;49.272;8.590;2023-10-31T11:47:28;2.77;;;1.43;;
8737;SDS011;4405;49.272;8.590;2023-10-31T11:50:11;1.60;;;1.30;;
8737;SDS011;4405;49.272;8.590;2023-10-31T11:52:37;4.47;;;1.70;;
8737;SDS011;4405;49.272;8.590;2023-10-31T11:55:04;2.57;;;1.30;;
8737;SDS011;4405;49.272;8.590;2023-10-31T11:57:31;2.13;;;1.73;;
8737;SDS011;4405;49.272;8.590;2023-10-31T11:59:57;3.57;;;1.57;;
8737;SDS011;4405;49.272;8.590;2023-10-31T12:02:24;4.23;;;1.70;;
8737;SDS011;4405;49.272;8.590;2023-10-31T12:04:52;2.37;;;1.50;;
8737;SDS011;4405;49.272;8.590;2023-10-31T12:07:40;8.97;;;1.63;;
8737;SDS011;4405;49.272;8.590;2023-10-31T12:10:07;2.10;;;1.63;;
8737;SDS011;4405;49.272;8.590;2023-10-31T12:12:34;2.60;;;1.40;;
8737;SDS011;4405;49.272;8.590;2023-10-31T12:15:04;1.67;;;1.30;;
8737;SDS011;4405;49.272;8.590;2023-10-31T12:17:30;3.73;;;1.50;;
8737;SDS011;4405;49.272;8.590;2023-10-31T12:19:58;1.67;;;1.30;;
8737;SDS011;4405;49.272;8.590;2023-10-31T12:22:28;3.80;;;1.40;;
8737;SDS011;4405;49.272;8.590;2023-10-31T12:24:59;2.73;;;1.33;;
8737;SDS011;4405;49.272;8.590;2023-10-31T12:27:26;2.03;;;1.30;;
8737;SDS011;4405;49.272;8.590;2023-10-31T12:30:07;1.00;;;1.00;;
8737;SDS011;4405;49.272;8.590;2023-10-31T12:32:34;2.60;;;1.30;;
8737;SDS011;4405;49.272;8.590;2023-10-31T12:35:02;1.53;;;1.20;;
8737;SDS011;4405;49.272;8.590;2023-10-31T12:37:28;1.80;;;1.10;;
8737;SDS011;4405;49.272;8.590;2023-10-31T12:39:55;1.40;;;1.30;;
8737;SDS011;4405;49.272;8.590;2023-10-31T12:42:22;3.33;;;1.23;;
8737;SDS011;4405;49.272;8.590;2023-10-31T12:44:54;0.90;;;0.90;;
8737;SDS011;4405;49.272;8.590;2023-10-31T12:47:21;1.23;;;1.10;;
8737;SDS011;4405;49.272;8.590;2023-10-31T12:49:47;1.30;;;1.20;;
8737;SDS011;4405;49.272;8.590;2023-10-31T12:52:15;1.83;;;1.57;;
8737;SDS011;4405;49.272;8.590;2023-10-31T12:54:41;1.27;;;1.17;;
8737;SDS011;4405;49.272;8.590;2023-10-31T12:57:08;1.43;;;1.27;;
8737;SDS011;4405;49.272;8.590;2023-10-31T12:59:35;1.20;;;1.03;;
8737;SDS011;4405;49.272;8.590;2023-10-31T13:02:03;1.73;;;1.63;;
8737;SDS011;4405;49.272;8.590;2023-10-31T13:04:30;1.10;;;1.10;;
8737;SDS011;4405;49.272;8.590;2023-10-31T13:06:57;1.17;;;1.07;;
8737;SDS011;4405;49.272;8.590;2023-10-31T13:09:27;1.00;;;0.90;;
8737;SDS011;4405;49.272;8.590;2023-10-31T13:11:54;3.30;;;0.90;;
8737;SDS011;4405;49.272;8.590;2023-10-31T13:14:23;2.13;;;1.10;;
8737;SDS011;4405;49.272;8.590;2023-10-31T13:16:49;1.10;;;1.00;;
8737;SDS011;4405;49.272;8.590;2023-10-31T13:19:15;1.50;;;0.90;;
8737;SDS011;4405;49.272;8.590;2023-10-31T13:21:42;1.17;;;1.10;;
8737;SDS011;4405;49.272;8.590;2023-10-31T13:24:08;2.00;;;1.10;;
8737;SDS011;4405;49.272;8.590;2023-10-31T13:26:36;0.90;;;0.90;;
8737;SDS011;4405;49.272;8.590;2023-10-31T13:29:03;1.47;;;1.03;;
8737;SDS011;4405;49.272;8.590;2023-10-31T13:31:29;2.60;;;1.00;;
8737;SDS011;4405;49.272;8.590;2023-10-31T13:33:56;0.97;;;0.83;;
8737;SDS011;4405;49.272;8.590;2023-10-31T13:36:22;2.07;;;1.03;;
8737;SDS011;4405;49.272;8.590;2023-10-31T13:38:49;2.77;;;1.10;;
8737;SDS011;4405;49.272;8.590;2023-10-31T13:41:15;1.17;;;1.07;;
8737;SDS011;4405;49.272;8.590;2023-10-31T13:43:43;2.30;;;1.00;;
8737;SDS011;4405;49.272;8.590;2023-10-31T13:46:09;1.83;;;1.27;;
8737;SDS011;4405;49.272;8.590;2023-10-31T13:48:36;1.30;;;0.90;;
8737;SDS011;4405;49.272;8.590;2023-10-31T13:51:03;2.20;;;1.20;;
8737;SDS011;4405;49.272;8.590;2023-10-31T13:53:30;1.70;;;1.30;;
8737;SDS011;4405;49.272;8.590;2023-10-31T13:55:56;3.87;;;1.30;;
8737;SDS011;4405;49.272;8.590;2023-10-31T13:58:23;3.30;;;1.80;;
8737;SDS011;4405;49.272;8.590;2023-10-31T14:00:51;2.17;;;1.50;;
8737;SDS011;4405;49.272;8.590;2023-10-31T14:03:17;1.57;;;1.30;;
8737;SDS011;4405;49.272;8.590;2023-10-31T14:05:43;2.00;;;1.40;;
8737;SDS011;4405;49.272;8.590;2023-10-31T14:08:10;3.30;;;1.23;;
8737;SDS011;4405;49.272;8.590;2023-10-31T14:10:36;2.23;;;2.13;;
8737;SDS011;4405;49.272;8.590;2023-10-31T14:13:03;1.93;;;1.73;;
8737;SDS011;4405;49.272;8.590;2023-10-31T14:15:30;1.93;;;1.53;;
8737;SDS011;4405;49.272;8.590;2023-10-31T14:17:59;2.33;;;1.13;;
8737;SDS011;4405;49.272;8.590;2023-10-31T14:20:25;1.30;;;1.20;;
8737;SDS011;4405;49.272;8.590;2023-10-31T14:22:52;1.40;;;1.33;;
8737;SDS011;4405;49.272;8.590;2023-10-31T14:25:18;2.43;;;1.27;;
8737;SDS011;4405;49.272;8.590;2023-10-31T14:27:44;2.63;;;1.13;;
8737;SDS011;4405;49.272;8.590;2023-10-31T14:30:11;1.10;;;1.10;;
8737;SDS011;4405;49.272;8.590;2023-10-31T14:32:38;1.20;;;1.20;;
8737;SDS011;4405;49.272;8.590;2023-10-31T14:35:06;1.33;;;1.17;;
8737;SDS011;4405;49.272;8.590;2023-10-31T14:37:33;0.93;;;0.93;;
8737;SDS011;4405;49.272;8.590;2023-10-31T14:40:00;1.10;;;1.00;;
8737;SDS011;4405;49.272;8.590;2023-10-31T14:42:27;2.10;;;1.10;;
8737;SDS011;4405;49.272;8.590;2023-10-31T14:44:54;1.63;;;1.03;;
8737;SDS011;4405;49.272;8.590;2023-10-31T14:47:21;2.13;;;0.90;;
8737;SDS011;4405;49.272;8.590;2023-10-31T14:49:48;1.50;;;0.97;;
8737;SDS011;4405;49.272;8.590;2023-10-31T14:52:15;1.60;;;0.90;;
8737;SDS011;4405;49.272;8.590;2023-10-31T14:54:42;1.37;;;1.27;;
8737;SDS011;4405;49.272;8.590;2023-10-31T14:57:08;5.63;;;1.20;;
8737;SDS011;4405;49.272;8.590;2023-10-31T14:59:35;1.63;;;1.23;;
8737;SDS011;4405;49.272;8.590;2023-10-31T15:02:01;1.93;;;1.27;;
8737;SDS011;4405;49.272;8.590;2023-10-31T15:04:28;1.63;;;1.20;;
8737;SDS011;4405;49.272;8.590;2023-10-31T15:06:54;1.47;;;1.30;;
8737;SDS011;4405;49.272;8.590;2023-10-31T15:09:22;1.97;;;1.20;;
8737;SDS011;4405;49.272;8.590;2023-10-31T15:11:48;2.13;;;1.27;;
8737;SDS011;4405;49.272;8.590;2023-10-31T15:14:15;1.40;;;1.20;;
8737;SDS011;4405;49.272;8.590;2023-10-31T15:16:41;2.03;;;1.17;;